sensor_id;sensor_type;location;lat;lon;timestamp;temperature;humidity
18611;DHT22;9435;52.122;5.502;2023-06-10T00:02:03;19.90;99.90
18611;DHT22;9435;52.122;5.502;2023-06-10T00:04:30;19.80;99.90
18611;DHT22;9435;52.122;5.502;2023-06-10T00:06:57;19.90;99.90
18611;DHT22;9435;52.122;5.502;2023-06-10T00:09:24;19.90;99.90
18611;DHT22;9435;52.122;5.502;2023-06-10T00:11:52;19.80;99.90
18611;DHT22;9435;52.122;5.502;2023-06-10T00:14:19;19.80;99.90
18611;DHT22;9435;52.122;5.502;2023-06-10T00:16:46;19.70;99.90
18611;DHT22;9435;52.122;5.502;2023-06-10T00:19:15;19.80;99.90
18611;DHT22;9435;52.122;5.502;2023-06-10T00:21:44;19.70;99.90
18611;DHT22;9435;52.122;5.502;2023-06-10T00:24:11;19.70;99.90
18611;DHT22;9435;52.122;5.502;2023-06-10T00:26:38;19.70;99.90
18611;DHT22;9435;52.122;5.502;2023-06-10T00:29:06;19.70;99.90
18611;DHT22;9435;52.122;5.502;2023-06-10T00:31:34;19.60;99.90
18611;DHT22;9435;52.122;5.502;2023-06-10T00:34:01;19.60;99.90
18611;DHT22;9435;52.122;5.502;2023-06-10T00:36:30;19.60;99.90
18611;DHT22;9435;52.122;5.502;2023-06-10T00:38:57;19.50;99.90
18611;DHT22;9435;52.122;5.502;2023-06-10T00:41:24;19.60;99.90
18611;DHT22;9435;52.122;5.502;2023-06-10T00:43:52;19.60;99.90
18611;DHT22;9435;52.122;5.502;2023-06-10T00:46:20;19.60;99.90
18611;DHT22;9435;52.122;5.502;2023-06-10T00:48:47;19.60;99.90
18611;DHT22;9435;52.122;5.502;2023-06-10T00:51:15;19.60;99.90
18611;DHT22;9435;52.122;5.502;2023-06-10T00:53:45;19.60;99.90
18611;DHT22;9435;52.122;5.502;2023-06-10T00:56:13;19.60;99.90
18611;DHT22;9435;52.122;5.502;2023-06-10T00:58:41;19.60;99.90
18611;DHT22;9435;52.122;5.502;2023-06-10T01:01:08;19.60;99.90
18611;DHT22;9435;52.122;5.502;2023-06-10T01:03:36;19.60;99.90
18611;DHT22;9435;52.122;5.502;2023-06-10T01:06:14;19.60;99.90
18611;DHT22;9435;52.122;5.502;2023-06-10T01:08:53;19.50;99.90
18611;DHT22;9435;52.122;5.502;2023-06-10T01:11:28;19.50;99.90
18611;DHT22;9435;52.122;5.502;2023-06-10T01:13:56;19.60;99.90
18611;DHT22;9435;52.122;5.502;2023-06-10T01:16:25;19.50;99.90
18611;DHT22;9435;52.122;5.502;2023-06-10T01:18:52;19.60;99.90
18611;DHT22;9435;52.122;5.502;2023-06-10T01:21:22;19.50;99.90
18611;DHT22;9435;52.122;5.502;2023-06-10T01:23:51;19.50;99.90
18611;DHT22;9435;52.122;5.502;2023-06-10T01:26:20;19.50;99.90
18611;DHT22;9435;52.122;5.502;2023-06-10T01:28:57;19.50;99.90
18611;DHT22;9435;52.122;5.502;2023-06-10T01:31:31;19.50;99.90
18611;DHT22;9435;52.122;5.502;2023-06-10T01:34:01;19.40;99.90
18611;DHT22;9435;52.122;5.502;2023-06-10T01:36:31;19.50;99.90
18611;DHT22;9435;52.122;5.502;2023-06-10T01:39:00;19.40;99.90
18611;DHT22;9435;52.122;5.502;2023-06-10T01:41:29;19.40;99.90
18611;DHT22;9435;52.122;5.502;2023-06-10T01:43:56;19.50;99.90
18611;DHT22;9435;52.122;5.502;2023-06-10T01:46:23;19.50;99.90
18611;DHT22;9435;52.122;5.502;2023-06-10T01:48:50;19.40;99.90
18611;DHT22;9435;52.122;5.502;2023-06-10T01:51:17;19.40;99.90
18611;DHT22;9435;52.122;5.502;2023-06-10T01:53:46;19.30;99.90
18611;DHT22;9435;52.122;5.502;2023-06-10T01:56:13;19.30;99.90
18611;DHT22;9435;52.122;5.502;2023-06-10T01:58:43;19.30;99.90
18611;DHT22;9435;52.122;5.502;2023-06-10T02:01:10;19.30;99.90
18611;DHT22;9435;52.122;5.502;2023-06-10T02:03:38;19.30;99.90
18611;DHT22;9435;52.122;5.502;2023-06-10T02:06:05;19.30;99.90
18611;DHT22;9435;52.122;5.502;2023-06-10T02:08:32;19.30;99.90
18611;DHT22;9435;52.122;5.502;2023-06-10T02:11:00;19.20;99.90
18611;DHT22;9435;52.122;5.502;2023-06-10T02:13:27;19.20;99.90
18611;DHT22;9435;52.122;5.502;2023-06-10T02:15:55;19.20;99.90
18611;DHT22;9435;52.122;5.502;2023-06-10T02:18:22;19.20;99.90
18611;DHT22;9435;52.122;5.502;2023-06-10T02:20:49;19.20;99.90
18611;DHT22;9435;52.122;5.502;2023-06-10T02:23:16;19.10;99.90
18611;DHT22;9435;52.122;5.502;2023-06-10T02:25:43;19.10;99.90
18611;DHT22;9435;52.122;5.502;2023-06-10T02:28:12;19.00;99.90
18611;DHT22;9435;52.122;5.502;2023-06-10T02:30:40;19.00;99.90
18611;DHT22;9435;52.122;5.502;2023-06-10T02:33:07;19.00;99.90
18611;DHT22;9435;52.122;5.502;2023-06-10T02:35:35;18.90;99.90
18611;DHT22;9435;52.122;5.502;2023-06-10T02:38:03;18.90;99.90
18611;DHT22;9435;52.122;5.502;2023-06-10T02:40:30;18.80;99.90
18611;DHT22;9435;52.122;5.502;2023-06-10T02:42:57;18.80;99.90
18611;DHT22;9435;52.122;5.502;2023-06-10T02:45:26;18.70;99.90
18611;DHT22;9435;52.122;5.502;2023-06-10T02:47:53;18.60;99.90
18611;DHT22;9435;52.122;5.502;2023-06-10T02:50:20;18.60;99.90
18611;DHT22;9435;52.122;5.502;2023-06-10T02:52:48;18.60;99.90
18611;DHT22;9435;52.122;5.502;2023-06-10T02:55:15;18.40;99.90
18611;DHT22;9435;52.122;5.502;2023-06-10T02:57:42;18.50;99.90
18611;DHT22;9435;52.122;5.502;2023-06-10T03:00:10;18.50;99.90
18611;DHT22;9435;52.122;5.502;2023-06-10T03:02:41;18.40;99.90
18611;DHT22;9435;52.122;5.502;2023-06-10T03:05:08;18.30;99.90
18611;DHT22;9435;52.122;5.502;2023-06-10T03:07:36;18.40;99.90
18611;DHT22;9435;52.122;5.502;2023-06-10T03:10:05;18.30;99.90
18611;DHT22;9435;52.122;5.502;2023-06-10T03:12:32;18.20;99.90
18611;DHT22;9435;52.122;5.502;2023-06-10T03:14:59;18.10;99.90
18611;DHT22;9435;52.122;5.502;2023-06-10T03:17:27;18.10;99.90
18611;DHT22;9435;52.122;5.502;2023-06-10T03:19:55;18.10;99.90
18611;DHT22;9435;52.122;5.502;2023-06-10T03:22:22;18.00;99.90
18611;DHT22;9435;52.122;5.502;2023-06-10T03:24:49;18.00;99.90
18611;DHT22;9435;52.122;5.502;2023-06-10T03:27:16;18.00;99.90
18611;DHT22;9435;52.122;5.502;2023-06-10T03:29:44;17.90;99.90
18611;DHT22;9435;52.122;5.502;2023-06-10T03:32:11;17.80;99.90
18611;DHT22;9435;52.122;5.502;2023-06-10T03:34:38;17.80;99.90
18611;DHT22;9435;52.122;5.502;2023-06-10T03:37:06;17.80;99.90
18611;DHT22;9435;52.122;5.502;2023-06-10T03:39:33;17.80;99.90
18611;DHT22;9435;52.122;5.502;2023-06-10T03:42:00;17.70;99.90
18611;DHT22;9435;52.122;5.502;2023-06-10T03:44:28;17.80;99.90
18611;DHT22;9435;52.122;5.502;2023-06-10T03:46:55;17.70;99.90
18611;DHT22;9435;52.122;5.502;2023-06-10T03:49:23;17.70;99.90
18611;DHT22;9435;52.122;5.502;2023-06-10T03:51:51;17.80;99.90
18611;DHT22;9435;52.122;5.502;2023-06-10T03:54:19;17.80;99.90
18611;DHT22;9435;52.122;5.502;2023-06-10T03:56:46;17.80;99.90
18611;DHT22;9435;52.122;5.502;2023-06-10T03:59:14;17.90;99.90
18611;DHT22;9435;52.122;5.502;2023-06-10T04:01:41;17.90;99.90
18611;DHT22;9435;52.122;5.502;2023-06-10T04:04:09;18.00;99.90
18611;DHT22;9435;52.122;5.502;2023-06-10T04:06:37;17.90;99.90
18611;DHT22;9435;52.122;5.502;2023-06-10T04:09:04;18.00;99.90
18611;DHT22;9435;52.122;5.502;2023-06-10T04:11:33;18.00;99.90
18611;DHT22;9435;52.122;5.502;2023-06-10T04:14:00;18.10;99.90
18611;DHT22;9435;52.122;5.502;2023-06-10T04:16:27;18.10;99.90
18611;DHT22;9435;52.122;5.502;2023-06-10T04:18:56;18.10;99.90
18611;DHT22;9435;52.122;5.502;2023-06-10T04:21:23;18.10;99.90
18611;DHT22;9435;52.122;5.502;2023-06-10T04:23:50;18.10;99.90
18611;DHT22;9435;52.122;5.502;2023-06-10T04:26:17;18.20;99.90
18611;DHT22;9435;52.122;5.502;2023-06-10T04:28:46;18.30;99.90
18611;DHT22;9435;52.122;5.502;2023-06-10T04:31:13;18.30;99.90
18611;DHT22;9435;52.122;5.502;2023-06-10T04:33:40;18.40;99.90
18611;DHT22;9435;52.122;5.502;2023-06-10T04:36:07;18.40;99.90
18611;DHT22;9435;52.122;5.502;2023-06-10T04:38:35;18.50;99.90
18611;DHT22;9435;52.122;5.502;2023-06-10T04:41:02;18.50;99.90
18611;DHT22;9435;52.122;5.502;2023-06-10T04:43:29;18.60;99.90
18611;DHT22;9435;52.122;5.502;2023-06-10T04:45:58;18.70;99.90
18611;DHT22;9435;52.122;5.502;2023-06-10T04:48:25;18.70;99.90
18611;DHT22;9435;52.122;5.502;2023-06-10T04:50:52;18.80;99.90
18611;DHT22;9435;52.122;5.502;2023-06-10T04:53:19;18.90;99.90
18611;DHT22;9435;52.122;5.502;2023-06-10T04:55:46;19.00;99.90
18611;DHT22;9435;52.122;5.502;2023-06-10T04:58:14;19.00;99.90
18611;DHT22;9435;52.122;5.502;2023-06-10T05:00:41;19.00;99.90
18611;DHT22;9435;52.122;5.502;2023-06-10T05:03:10;19.00;99.90
18611;DHT22;9435;52.122;5.502;2023-06-10T05:05:37;19.00;99.90
18611;DHT22;9435;52.122;5.502;2023-06-10T05:08:05;19.00;99.90
18611;DHT22;9435;52.122;5.502;2023-06-10T05:10:32;19.10;99.90
18611;DHT22;9435;52.122;5.502;2023-06-10T05:12:59;19.00;99.90
18611;DHT22;9435;52.122;5.502;2023-06-10T05:15:27;19.10;99.90
18611;DHT22;9435;52.122;5.502;2023-06-10T05:17:55;19.10;99.90
18611;DHT22;9435;52.122;5.502;2023-06-10T05:20:24;19.10;99.90
18611;DHT22;9435;52.122;5.502;2023-06-10T05:22:52;19.10;99.90
18611;DHT22;9435;52.122;5.502;2023-06-10T05:25:19;19.20;99.90
18611;DHT22;9435;52.122;5.502;2023-06-10T05:27:46;19.20;99.90
18611;DHT22;9435;52.122;5.502;2023-06-10T05:30:13;19.30;99.90
18611;DHT22;9435;52.122;5.502;2023-06-10T05:32:40;19.30;99.90
18611;DHT22;9435;52.122;5.502;2023-06-10T05:35:08;19.40;99.90
18611;DHT22;9435;52.122;5.502;2023-06-10T05:37:36;19.60;99.90
18611;DHT22;9435;52.122;5.502;2023-06-10T05:40:04;19.70;99.90
18611;DHT22;9435;52.122;5.502;2023-06-10T05:42:31;19.60;99.90
18611;DHT22;9435;52.122;5.502;2023-06-10T05:44:58;19.70;99.90
18611;DHT22;9435;52.122;5.502;2023-06-10T05:47:25;19.80;99.90
18611;DHT22;9435;52.122;5.502;2023-06-10T05:49:52;19.80;99.90
18611;DHT22;9435;52.122;5.502;2023-06-10T05:52:20;20.00;99.90
18611;DHT22;9435;52.122;5.502;2023-06-10T05:54:49;20.00;99.90
18611;DHT22;9435;52.122;5.502;2023-06-10T05:57:16;20.30;99.90
18611;DHT22;9435;52.122;5.502;2023-06-10T05:59:44;20.30;99.90
18611;DHT22;9435;52.122;5.502;2023-06-10T06:02:11;20.50;99.90
18611;DHT22;9435;52.122;5.502;2023-06-10T06:04:38;20.80;99.90
18611;DHT22;9435;52.122;5.502;2023-06-10T06:07:06;20.90;99.90
18611;DHT22;9435;52.122;5.502;2023-06-10T06:09:33;21.10;99.90
18611;DHT22;9435;52.122;5.502;2023-06-10T06:12:01;21.30;99.90
18611;DHT22;9435;52.122;5.502;2023-06-10T06:14:31;21.20;99.90
18611;DHT22;9435;52.122;5.502;2023-06-10T06:17:04;21.30;99.90
18611;DHT22;9435;52.122;5.502;2023-06-10T06:19:31;21.40;99.90
18611;DHT22;9435;52.122;5.502;2023-06-10T06:21:58;21.40;99.90
18611;DHT22;9435;52.122;5.502;2023-06-10T06:24:26;21.60;99.90
18611;DHT22;9435;52.122;5.502;2023-06-10T06:26:54;21.50;99.90
18611;DHT22;9435;52.122;5.502;2023-06-10T06:29:22;21.50;99.90
18611;DHT22;9435;52.122;5.502;2023-06-10T06:31:49;21.50;99.90
18611;DHT22;9435;52.122;5.502;2023-06-10T06:34:16;21.80;99.90
18611;DHT22;9435;52.122;5.502;2023-06-10T06:36:43;21.90;99.90
18611;DHT22;9435;52.122;5.502;2023-06-10T06:39:10;22.40;99.90
18611;DHT22;9435;52.122;5.502;2023-06-10T06:41:37;22.40;99.90
18611;DHT22;9435;52.122;5.502;2023-06-10T06:44:04;22.50;99.90
18611;DHT22;9435;52.122;5.502;2023-06-10T06:46:33;22.40;99.90
18611;DHT22;9435;52.122;5.502;2023-06-10T06:49:00;22.30;99.90
18611;DHT22;9435;52.122;5.502;2023-06-10T06:51:27;22.40;99.90
18611;DHT22;9435;52.122;5.502;2023-06-10T06:53:54;22.50;99.90
18611;DHT22;9435;52.122;5.502;2023-06-10T06:56:24;22.60;99.90
18611;DHT22;9435;52.122;5.502;2023-06-10T06:58:52;22.80;99.90
18611;DHT22;9435;52.122;5.502;2023-06-10T07:01:19;22.80;99.90
18611;DHT22;9435;52.122;5.502;2023-06-10T07:03:48;23.10;99.90
18611;DHT22;9435;52.122;5.502;2023-06-10T07:06:15;23.00;99.90
18611;DHT22;9435;52.122;5.502;2023-06-10T07:08:42;23.10;99.90
18611;DHT22;9435;52.122;5.502;2023-06-10T07:11:09;23.30;99.90
18611;DHT22;9435;52.122;5.502;2023-06-10T07:13:36;23.40;99.90
18611;DHT22;9435;52.122;5.502;2023-06-10T07:16:04;23.40;99.90
18611;DHT22;9435;52.122;5.502;2023-06-10T07:18:31;23.60;99.90
18611;DHT22;9435;52.122;5.502;2023-06-10T07:20:59;23.50;99.90
18611;DHT22;9435;52.122;5.502;2023-06-10T07:23:26;23.70;99.90
18611;DHT22;9435;52.122;5.502;2023-06-10T07:25:53;23.90;99.90
18611;DHT22;9435;52.122;5.502;2023-06-10T07:28:20;24.30;99.90
18611;DHT22;9435;52.122;5.502;2023-06-10T07:30:47;24.30;99.90
18611;DHT22;9435;52.122;5.502;2023-06-10T07:33:14;24.30;99.90
18611;DHT22;9435;52.122;5.502;2023-06-10T07:35:41;24.50;99.90
18611;DHT22;9435;52.122;5.502;2023-06-10T07:38:11;24.60;99.90
18611;DHT22;9435;52.122;5.502;2023-06-10T07:40:38;24.80;99.90
18611;DHT22;9435;52.122;5.502;2023-06-10T07:43:05;25.00;99.90
18611;DHT22;9435;52.122;5.502;2023-06-10T07:45:32;25.30;99.90
18611;DHT22;9435;52.122;5.502;2023-06-10T07:47:59;25.30;99.90
18611;DHT22;9435;52.122;5.502;2023-06-10T07:50:26;25.40;99.90
18611;DHT22;9435;52.122;5.502;2023-06-10T07:52:53;25.50;99.90
18611;DHT22;9435;52.122;5.502;2023-06-10T07:55:22;25.40;99.90
18611;DHT22;9435;52.122;5.502;2023-06-10T07:57:51;26.00;99.90
18611;DHT22;9435;52.122;5.502;2023-06-10T08:00:19;25.80;99.90
18611;DHT22;9435;52.122;5.502;2023-06-10T08:02:46;25.80;99.90
18611;DHT22;9435;52.122;5.502;2023-06-10T08:05:13;25.80;99.90
18611;DHT22;9435;52.122;5.502;2023-06-10T08:07:40;26.10;99.90
18611;DHT22;9435;52.122;5.502;2023-06-10T08:10:08;26.40;99.90
18611;DHT22;9435;52.122;5.502;2023-06-10T08:12:37;26.70;99.90
18611;DHT22;9435;52.122;5.502;2023-06-10T08:15:05;26.20;99.90
18611;DHT22;9435;52.122;5.502;2023-06-10T08:17:32;26.20;99.90
18611;DHT22;9435;52.122;5.502;2023-06-10T08:19:59;26.10;99.90
18611;DHT22;9435;52.122;5.502;2023-06-10T08:22:26;26.30;99.90
18611;DHT22;9435;52.122;5.502;2023-06-10T08:24:54;26.30;99.90
18611;DHT22;9435;52.122;5.502;2023-06-10T08:27:21;26.10;99.90
18611;DHT22;9435;52.122;5.502;2023-06-10T08:29:50;26.30;99.90
18611;DHT22;9435;52.122;5.502;2023-06-10T08:32:18;26.60;99.90
18611;DHT22;9435;52.122;5.502;2023-06-10T08:34:45;26.70;99.90
18611;DHT22;9435;52.122;5.502;2023-06-10T08:37:12;26.70;99.90
18611;DHT22;9435;52.122;5.502;2023-06-10T08:39:39;27.00;99.90
18611;DHT22;9435;52.122;5.502;2023-06-10T08:42:12;26.90;99.90
18611;DHT22;9435;52.122;5.502;2023-06-10T08:44:40;27.20;99.90
18611;DHT22;9435;52.122;5.502;2023-06-10T08:47:13;27.30;99.90
18611;DHT22;9435;52.122;5.502;2023-06-10T08:49:43;27.50;99.90
18611;DHT22;9435;52.122;5.502;2023-06-10T08:52:14;27.30;99.90
18611;DHT22;9435;52.122;5.502;2023-06-10T08:57:26;27.30;99.90
18611;DHT22;9435;52.122;5.502;2023-06-10T08:59:55;27.80;99.90
18611;DHT22;9435;52.122;5.502;2023-06-10T09:02:24;28.10;99.90
18611;DHT22;9435;52.122;5.502;2023-06-10T09:04:51;28.20;99.90
18611;DHT22;9435;52.122;5.502;2023-06-10T09:07:20;28.10;99.90
18611;DHT22;9435;52.122;5.502;2023-06-10T09:09:48;28.50;99.90
18611;DHT22;9435;52.122;5.502;2023-06-10T09:12:15;28.60;99.90
18611;DHT22;9435;52.122;5.502;2023-06-10T09:14:42;28.00;99.90
18611;DHT22;9435;52.122;5.502;2023-06-10T09:17:10;28.50;99.90
18611;DHT22;9435;52.122;5.502;2023-06-10T09:19:39;28.50;99.90
18611;DHT22;9435;52.122;5.502;2023-06-10T09:22:07;28.40;99.90
18611;DHT22;9435;52.122;5.502;2023-06-10T09:24:34;28.50;99.90
18611;DHT22;9435;52.122;5.502;2023-06-10T09:27:06;28.40;99.90
18611;DHT22;9435;52.122;5.502;2023-06-10T09:29:45;28.80;99.90
18611;DHT22;9435;52.122;5.502;2023-06-10T09:32:12;28.80;99.90
18611;DHT22;9435;52.122;5.502;2023-06-10T09:34:41;29.10;99.90
18611;DHT22;9435;52.122;5.502;2023-06-10T09:37:08;29.00;99.90
18611;DHT22;9435;52.122;5.502;2023-06-10T09:39:38;28.80;99.90
18611;DHT22;9435;52.122;5.502;2023-06-10T09:42:15;29.00;99.90
18611;DHT22;9435;52.122;5.502;2023-06-10T09:44:49;29.00;99.90
18611;DHT22;9435;52.122;5.502;2023-06-10T09:47:20;29.00;99.90
18611;DHT22;9435;52.122;5.502;2023-06-10T09:49:49;29.00;99.90
18611;DHT22;9435;52.122;5.502;2023-06-10T09:52:21;28.90;99.90
18611;DHT22;9435;52.122;5.502;2023-06-10T09:54:50;29.20;99.90
18611;DHT22;9435;52.122;5.502;2023-06-10T09:57:17;29.10;99.90
18611;DHT22;9435;52.122;5.502;2023-06-10T09:59:45;29.20;99.90
18611;DHT22;9435;52.122;5.502;2023-06-10T10:02:14;28.90;99.90
18611;DHT22;9435;52.122;5.502;2023-06-10T10:04:42;29.20;99.90
18611;DHT22;9435;52.122;5.502;2023-06-10T10:07:11;29.60;99.90
18611;DHT22;9435;52.122;5.502;2023-06-10T10:09:39;29.80;99.90
18611;DHT22;9435;52.122;5.502;2023-06-10T10:12:10;30.20;99.90
18611;DHT22;9435;52.122;5.502;2023-06-10T10:14:38;29.70;99.90
18611;DHT22;9435;52.122;5.502;2023-06-10T10:17:09;29.20;99.90
18611;DHT22;9435;52.122;5.502;2023-06-10T10:19:40;29.70;99.90
18611;DHT22;9435;52.122;5.502;2023-06-10T10:22:18;30.00;99.90
18611;DHT22;9435;52.122;5.502;2023-06-10T10:24:49;30.20;99.90
18611;DHT22;9435;52.122;5.502;2023-06-10T10:27:21;29.90;99.90
18611;DHT22;9435;52.122;5.502;2023-06-10T10:29:52;29.80;99.90
18611;DHT22;9435;52.122;5.502;2023-06-10T10:32:24;30.20;99.90
18611;DHT22;9435;52.122;5.502;2023-06-10T10:35:02;30.40;99.90
18611;DHT22;9435;52.122;5.502;2023-06-10T10:37:33;30.80;99.90
18611;DHT22;9435;52.122;5.502;2023-06-10T10:40:01;30.10;99.90
18611;DHT22;9435;52.122;5.502;2023-06-10T10:42:29;30.00;99.90
18611;DHT22;9435;52.122;5.502;2023-06-10T10:44:57;29.80;99.90
18611;DHT22;9435;52.122;5.502;2023-06-10T10:47:27;29.80;99.90
18611;DHT22;9435;52.122;5.502;2023-06-10T10:49:55;30.10;99.90
18611;DHT22;9435;52.122;5.502;2023-06-10T10:52:24;30.40;99.90
18611;DHT22;9435;52.122;5.502;2023-06-10T10:54:53;30.10;99.90
18611;DHT22;9435;52.122;5.502;2023-06-10T10:57:22;30.00;99.90
18611;DHT22;9435;52.122;5.502;2023-06-10T10:59:54;30.10;99.90
18611;DHT22;9435;52.122;5.502;2023-06-10T11:02:41;30.10;99.90
18611;DHT22;9435;52.122;5.502;2023-06-10T11:05:10;30.00;99.90
18611;DHT22;9435;52.122;5.502;2023-06-10T11:07:38;29.80;99.90
18611;DHT22;9435;52.122;5.502;2023-06-10T11:10:11;29.80;99.90
18611;DHT22;9435;52.122;5.502;2023-06-10T11:12:52;29.90;99.90
18611;DHT22;9435;52.122;5.502;2023-06-10T11:15:20;30.00;99.90
18611;DHT22;9435;52.122;5.502;2023-06-10T11:18:11;30.20;99.90
18611;DHT22;9435;52.122;5.502;2023-06-10T11:20:58;30.60;99.90
18611;DHT22;9435;52.122;5.502;2023-06-10T11:23:39;30.70;99.90
18611;DHT22;9435;52.122;5.502;2023-06-10T11:26:12;30.70;99.90
18611;DHT22;9435;52.122;5.502;2023-06-10T11:28:39;30.50;99.90
18611;DHT22;9435;52.122;5.502;2023-06-10T11:31:06;30.30;99.90
18611;DHT22;9435;52.122;5.502;2023-06-10T11:33:33;30.40;99.90
18611;DHT22;9435;52.122;5.502;2023-06-10T11:36:06;30.20;99.90
18611;DHT22;9435;52.122;5.502;2023-06-10T11:38:34;30.40;99.90
18611;DHT22;9435;52.122;5.502;2023-06-10T11:41:02;30.50;99.90
18611;DHT22;9435;52.122;5.502;2023-06-10T11:43:30;30.50;99.90
18611;DHT22;9435;52.122;5.502;2023-06-10T11:45:57;30.70;99.90
18611;DHT22;9435;52.122;5.502;2023-06-10T11:48:25;30.50;99.90
18611;DHT22;9435;52.122;5.502;2023-06-10T11:50:54;30.60;99.90
18611;DHT22;9435;52.122;5.502;2023-06-10T11:53:21;30.10;99.90
18611;DHT22;9435;52.122;5.502;2023-06-10T11:55:51;30.10;99.90
18611;DHT22;9435;52.122;5.502;2023-06-10T11:58:19;30.10;99.90
18611;DHT22;9435;52.122;5.502;2023-06-10T12:00:49;30.50;99.90
18611;DHT22;9435;52.122;5.502;2023-06-10T12:03:17;30.80;99.90
18611;DHT22;9435;52.122;5.502;2023-06-10T12:05:57;30.80;99.90
18611;DHT22;9435;52.122;5.502;2023-06-10T12:08:25;30.50;99.90
18611;DHT22;9435;52.122;5.502;2023-06-10T12:10:53;30.10;99.90
18611;DHT22;9435;52.122;5.502;2023-06-10T12:13:21;30.20;99.90
18611;DHT22;9435;52.122;5.502;2023-06-10T12:15:50;30.50;99.90
18611;DHT22;9435;52.122;5.502;2023-06-10T12:18:18;30.60;99.90
18611;DHT22;9435;52.122;5.502;2023-06-10T12:20:45;30.70;99.90
18611;DHT22;9435;52.122;5.502;2023-06-10T12:23:14;30.80;99.90
18611;DHT22;9435;52.122;5.502;2023-06-10T12:25:50;30.50;99.90
18611;DHT22;9435;52.122;5.502;2023-06-10T12:28:21;30.70;99.90
18611;DHT22;9435;52.122;5.502;2023-06-10T12:30:49;30.70;99.90
18611;DHT22;9435;52.122;5.502;2023-06-10T12:33:17;30.80;99.90
18611;DHT22;9435;52.122;5.502;2023-06-10T12:35:47;30.80;99.90
18611;DHT22;9435;52.122;5.502;2023-06-10T12:38:21;31.00;99.90
18611;DHT22;9435;52.122;5.502;2023-06-10T12:40:50;30.60;99.90
18611;DHT22;9435;52.122;5.502;2023-06-10T12:43:22;31.10;99.90
18611;DHT22;9435;52.122;5.502;2023-06-10T12:45:50;31.50;99.90
18611;DHT22;9435;52.122;5.502;2023-06-10T12:48:19;31.00;99.90
18611;DHT22;9435;52.122;5.502;2023-06-10T12:50:51;31.30;99.90
18611;DHT22;9435;52.122;5.502;2023-06-10T12:53:19;31.30;99.90
18611;DHT22;9435;52.122;5.502;2023-06-10T12:55:46;30.70;99.90
18611;DHT22;9435;52.122;5.502;2023-06-10T12:58:14;30.70;99.90
18611;DHT22;9435;52.122;5.502;2023-06-10T13:00:41;31.20;99.90
18611;DHT22;9435;52.122;5.502;2023-06-10T13:03:10;31.60;99.90
18611;DHT22;9435;52.122;5.502;2023-06-10T13:05:37;31.10;99.90
18611;DHT22;9435;52.122;5.502;2023-06-10T13:08:05;31.10;99.90
18611;DHT22;9435;52.122;5.502;2023-06-10T13:10:33;30.90;99.90
18611;DHT22;9435;52.122;5.502;2023-06-10T13:13:00;31.00;99.90
18611;DHT22;9435;52.122;5.502;2023-06-10T13:15:28;31.20;99.90
18611;DHT22;9435;52.122;5.502;2023-06-10T13:17:55;31.40;99.90
18611;DHT22;9435;52.122;5.502;2023-06-10T13:20:23;31.20;99.90
18611;DHT22;9435;52.122;5.502;2023-06-10T13:22:51;30.90;99.90
18611;DHT22;9435;52.122;5.502;2023-06-10T13:25:18;30.90;99.90
18611;DHT22;9435;52.122;5.502;2023-06-10T13:27:46;30.60;99.90
18611;DHT22;9435;52.122;5.502;2023-06-10T13:30:13;30.70;99.90
18611;DHT22;9435;52.122;5.502;2023-06-10T13:32:40;30.70;99.90
18611;DHT22;9435;52.122;5.502;2023-06-10T13:35:08;30.50;99.90
18611;DHT22;9435;52.122;5.502;2023-06-10T13:37:36;30.70;99.90
18611;DHT22;9435;52.122;5.502;2023-06-10T13:40:04;31.00;99.90
18611;DHT22;9435;52.122;5.502;2023-06-10T13:42:33;30.60;99.90
18611;DHT22;9435;52.122;5.502;2023-06-10T13:45:01;30.50;99.90
18611;DHT22;9435;52.122;5.502;2023-06-10T13:47:28;30.50;99.90
18611;DHT22;9435;52.122;5.502;2023-06-10T13:49:55;30.40;99.90
18611;DHT22;9435;52.122;5.502;2023-06-10T13:52:22;30.60;99.90
18611;DHT22;9435;52.122;5.502;2023-06-10T13:54:51;30.60;99.90
18611;DHT22;9435;52.122;5.502;2023-06-10T13:57:18;30.60;99.90
18611;DHT22;9435;52.122;5.502;2023-06-10T13:59:45;30.50;99.90
18611;DHT22;9435;52.122;5.502;2023-06-10T14:02:12;30.40;99.90
18611;DHT22;9435;52.122;5.502;2023-06-10T14:04:39;30.80;99.90
18611;DHT22;9435;52.122;5.502;2023-06-10T14:07:06;30.60;99.90
18611;DHT22;9435;52.122;5.502;2023-06-10T14:09:33;30.50;99.90
18611;DHT22;9435;52.122;5.502;2023-06-10T14:12:02;30.70;99.90
18611;DHT22;9435;52.122;5.502;2023-06-10T14:14:31;30.70;99.90
18611;DHT22;9435;52.122;5.502;2023-06-10T14:16:58;30.60;99.90
18611;DHT22;9435;52.122;5.502;2023-06-10T14:19:25;30.60;99.90
18611;DHT22;9435;52.122;5.502;2023-06-10T14:21:52;30.40;99.90
18611;DHT22;9435;52.122;5.502;2023-06-10T14:24:21;30.40;99.90
18611;DHT22;9435;52.122;5.502;2023-06-10T14:26:48;30.60;99.90
18611;DHT22;9435;52.122;5.502;2023-06-10T14:29:16;30.80;99.90
18611;DHT22;9435;52.122;5.502;2023-06-10T14:31:44;30.90;99.90
18611;DHT22;9435;52.122;5.502;2023-06-10T14:34:11;30.80;99.90
18611;DHT22;9435;52.122;5.502;2023-06-10T14:36:38;30.40;99.90
18611;DHT22;9435;52.122;5.502;2023-06-10T14:39:06;30.20;99.90
18611;DHT22;9435;52.122;5.502;2023-06-10T14:41:33;30.70;99.90
18611;DHT22;9435;52.122;5.502;2023-06-10T14:44:00;30.70;99.90
18611;DHT22;9435;52.122;5.502;2023-06-10T14:46:28;30.60;99.90
18611;DHT22;9435;52.122;5.502;2023-06-10T14:48:55;30.70;99.90
18611;DHT22;9435;52.122;5.502;2023-06-10T14:51:24;30.70;99.90
18611;DHT22;9435;52.122;5.502;2023-06-10T14:53:52;30.90;99.90
18611;DHT22;9435;52.122;5.502;2023-06-10T14:56:19;30.40;99.90
18611;DHT22;9435;52.122;5.502;2023-06-10T14:58:49;30.30;99.90
18611;DHT22;9435;52.122;5.502;2023-06-10T15:01:16;30.60;99.90
18611;DHT22;9435;52.122;5.502;2023-06-10T15:03:45;30.80;99.90
18611;DHT22;9435;52.122;5.502;2023-06-10T15:06:12;31.00;99.90
18611;DHT22;9435;52.122;5.502;2023-06-10T15:08:42;30.40;99.90
18611;DHT22;9435;52.122;5.502;2023-06-10T15:11:10;30.20;99.90
18611;DHT22;9435;52.122;5.502;2023-06-10T15:13:37;30.20;99.90
18611;DHT22;9435;52.122;5.502;2023-06-10T15:16:05;29.90;99.90
18611;DHT22;9435;52.122;5.502;2023-06-10T15:18:32;30.10;99.90
18611;DHT22;9435;52.122;5.502;2023-06-10T15:21:00;30.00;99.90
18611;DHT22;9435;52.122;5.502;2023-06-10T15:23:27;30.10;99.90
18611;DHT22;9435;52.122;5.502;2023-06-10T15:25:54;30.20;99.90
18611;DHT22;9435;52.122;5.502;2023-06-10T15:28:22;30.10;99.90
18611;DHT22;9435;52.122;5.502;2023-06-10T15:30:51;30.20;99.90
18611;DHT22;9435;52.122;5.502;2023-06-10T15:33:18;30.20;99.90
18611;DHT22;9435;52.122;5.502;2023-06-10T15:35:45;30.10;99.90
18611;DHT22;9435;52.122;5.502;2023-06-10T15:38:13;29.80;99.90
18611;DHT22;9435;52.122;5.502;2023-06-10T15:40:41;29.70;99.90
18611;DHT22;9435;52.122;5.502;2023-06-10T15:43:08;29.80;99.90
18611;DHT22;9435;52.122;5.502;2023-06-10T15:45:35;29.70;99.90
18611;DHT22;9435;52.122;5.502;2023-06-10T15:48:02;29.60;99.90
18611;DHT22;9435;52.122;5.502;2023-06-10T15:50:29;29.80;99.90
18611;DHT22;9435;52.122;5.502;2023-06-10T15:52:56;29.90;99.90
18611;DHT22;9435;52.122;5.502;2023-06-10T15:55:24;30.00;99.90